Time;durP1;ratioP1;P1;durP2;ratioP2;P2;SDS_P1;SDS_P2;PMS_P1;PMS_P2;Temp;Humidity;BMP_temperature;BMP_pressure;BME280_temperature;BME280_humidity;BME280_pressure;Samples;Min_cycle;Max_cycle;Signal;HPM_P1;HPM_P2
2020/12/18 00:00:35;;;;;;;54.58;24.98;;;5.60;74.30;;;;;;5074850;28;20020;-64
2020/12/18 00:03:01;;;;;;;48.63;23.73;;;5.60;74.40;;;;;;5074566;28;20021;-65
2020/12/18 00:05:27;;;;;;;51.13;24.13;;;5.60;74.30;;;;;;5063199;28;20009;-65
2020/12/18 00:07:52;;;;;;;50.10;22.20;;;5.60;74.40;;;;;;5056529;28;20056;-65
2020/12/18 00:10:18;;;;;;;44.22;23.38;;;5.60;74.50;;;;;;5066489;28;20031;-65
2020/12/18 00:12:44;;;;;;;49.10;22.05;;;5.60;74.40;;;;;;5054198;28;20511;-64
2020/12/18 00:15:10;;;;;;;47.65;22.00;;;5.60;74.40;;;;;;5054809;28;20025;-65
2020/12/18 00:17:35;;;;;;;51.13;21.83;;;5.50;74.40;;;;;;5054507;28;20100;-64
2020/12/18 00:20:05;;;;;;;56.42;23.73;;;5.60;74.40;;;;;;5058123;28;20017;-64
2020/12/18 00:22:30;;;;;;;51.47;24.20;;;5.50;74.60;;;;;;5063254;28;20036;-64
2020/12/18 00:24:56;;;;;;;51.00;24.55;;;5.50;74.70;;;;;;5048431;28;20056;-64
2020/12/18 00:27:22;;;;;;;52.30;27.40;;;5.50;74.70;;;;;;5042766;28;20029;-65
2020/12/18 00:29:47;;;;;;;58.15;27.30;;;5.50;74.80;;;;;;5053586;28;20036;-64
2020/12/18 00:32:13;;;;;;;62.05;27.52;;;5.50;74.80;;;;;;5046863;28;20534;-64
2020/12/18 00:34:39;;;;;;;52.05;25.73;;;5.50;74.90;;;;;;5054287;28;20381;-64
2020/12/18 00:37:04;;;;;;;61.28;27.35;;;5.50;75.00;;;;;;5052995;28;20465;-64
2020/12/18 00:39:30;;;;;;;76.57;32.67;;;5.50;75.00;;;;;;5040445;28;20039;-65
2020/12/18 00:41:56;;;;;;;61.00;28.00;;;5.50;75.00;;;;;;5041569;28;20022;-64
2020/12/18 00:44:21;;;;;;;60.00;28.90;;;5.50;74.90;;;;;;5052755;28;20033;-65
2020/12/18 00:46:47;;;;;;;73.80;31.08;;;5.50;75.00;;;;;;5043239;28;20025;-65
2020/12/18 00:49:14;;;;;;;72.63;32.53;;;5.50;75.10;;;;;;5064880;28;20024;-65
2020/12/18 00:51:39;;;;;;;73.22;32.22;;;5.50;75.20;;;;;;5045102;28;20087;-64
2020/12/18 00:54:05;;;;;;;67.72;30.70;;;5.50;75.00;;;;;;5063417;28;20024;-65
2020/12/18 00:56:32;;;;;;;66.13;31.48;;;5.50;75.10;;;;;;5060859;28;20029;-64
2020/12/18 00:58:57;;;;;;;80.43;34.40;;;5.60;75.00;;;;;;5054101;28;20033;-64
2020/12/18 01:01:23;;;;;;;68.45;29.15;;;5.60;75.00;;;;;;5057911;28;20027;-64
2020/12/18 01:03:49;;;;;;;70.85;31.23;;;5.60;74.80;;;;;;5056023;28;20040;-65
2020/12/18 01:06:16;;;;;;;65.75;29.80;;;5.60;74.80;;;;;;5058232;28;20164;-64
2020/12/18 01:08:42;;;;;;;74.78;33.17;;;5.60;74.80;;;;;;5064235;28;20366;-65
2020/12/18 01:11:08;;;;;;;69.70;33.15;;;5.50;75.10;;;;;;5057153;28;20158;-64
2020/12/18 01:13:34;;;;;;;68.72;31.10;;;5.50;75.20;;;;;;5073669;28;20025;-64
2020/12/18 01:16:00;;;;;;;64.85;29.73;;;5.50;75.10;;;;;;5053786;28;20029;-64
2020/12/18 01:18:26;;;;;;;77.47;34.13;;;5.50;75.30;;;;;;5052957;28;20025;-65
2020/12/18 01:20:52;;;;;;;65.97;30.60;;;5.50;75.10;;;;;;5045666;28;20040;-65
2020/12/18 01:23:18;;;;;;;70.28;33.13;;;5.40;75.30;;;;;;5033333;28;20385;-64
2020/12/18 01:25:44;;;;;;;66.75;29.05;;;5.40;75.30;;;;;;5039481;28;20056;-64
2020/12/18 01:28:11;;;;;;;69.50;29.25;;;5.50;75.60;;;;;;5033424;28;20520;-65
2020/12/18 01:30:37;;;;;;;65.18;29.23;;;5.50;75.40;;;;;;5039912;28;20049;-65
2020/12/18 01:33:03;;;;;;;66.80;30.55;;;5.40;75.30;;;;;;5033382;28;20053;-65
2020/12/18 01:35:29;;;;;;;64.00;30.10;;;5.40;75.40;;;;;;5033446;28;20032;-65
2020/12/18 01:37:55;;;;;;;56.08;25.42;;;5.40;75.50;;;;;;5037673;28;20134;-65
2020/12/18 01:40:21;;;;;;;63.95;29.77;;;5.40;75.40;;;;;;5042032;28;20021;-64
2020/12/18 01:42:47;;;;;;;58.85;26.85;;;5.40;75.60;;;;;;5052125;28;20025;-64
2020/12/18 01:45:12;;;;;;;61.67;29.33;;;5.40;75.70;;;;;;5053066;28;20082;-64
2020/12/18 01:47:38;;;;;;;68.97;31.02;;;5.40;75.60;;;;;;5048183;28;20032;-65
2020/12/18 01:50:05;;;;;;;57.80;26.55;;;5.40;75.60;;;;;;5052411;28;20186;-64
2020/12/18 01:52:33;;;;;;;51.95;24.75;;;5.40;75.40;;;;;;5043502;28;20025;-64
2020/12/18 01:55:03;;;;;;;51.42;26.23;;;5.40;75.30;;;;;;5047161;28;20115;-64
2020/12/18 01:57:31;;;;;;;55.53;28.23;;;5.40;75.20;;;;;;5033293;28;20486;-64
2020/12/18 01:59:57;;;;;;;52.45;24.15;;;5.40;75.60;;;;;;5032824;28;20112;-64
2020/12/18 02:02:23;;;;;;;53.35;24.23;;;5.30;75.50;;;;;;5038756;28;20484;-64
2020/12/18 02:04:49;;;;;;;53.53;25.15;;;5.30;75.60;;;;;;5049542;28;20544;-65
2020/12/18 02:07:23;;;;;;;60.67;26.77;;;5.30;75.60;;;;;;5034519;28;20072;-65
2020/12/18 02:09:50;;;;;;;53.50;26.00;;;5.40;75.80;;;;;;5033377;28;20034;-64
2020/12/18 02:12:17;;;;;;;53.00;24.67;;;5.40;75.80;;;;;;5032849;28;20420;-65
2020/12/18 02:14:43;;;;;;;52.20;24.35;;;5.30;75.90;;;;;;5042283;28;20454;-64
2020/12/18 02:17:09;;;;;;;51.58;24.17;;;5.30;75.80;;;;;;5039240;28;20073;-65
2020/12/18 02:19:39;;;;;;;48.95;23.52;;;5.30;75.90;;;;;;5045049;28;20048;-65
2020/12/18 02:22:31;;;;;;;58.60;27.63;;;5.30;76.00;;;;;;5032534;28;20363;-64
2020/12/18 02:25:07;;;;;;;56.92;24.75;;;5.30;75.80;;;;;;5041471;28;20037;-65
2020/12/18 02:27:34;;;;;;;61.20;27.00;;;5.30;76.00;;;;;;5050294;28;20032;-65
2020/12/18 02:30:00;;;;;;;55.00;25.67;;;5.30;76.00;;;;;;5032841;28;20038;-64
2020/12/18 02:32:26;;;;;;;61.95;29.45;;;5.30;75.80;;;;;;5032627;28;20036;-65
2020/12/18 02:34:52;;;;;;;64.15;28.08;;;5.30;75.90;;;;;;5032929;28;20056;-64
2020/12/18 02:37:18;;;;;;;58.15;26.48;;;5.30;76.00;;;;;;5032772;28;20081;-65
2020/12/18 02:39:44;;;;;;;64.80;28.77;;;5.30;76.70;;;;;;5036614;28;20052;-64
2020/12/18 02:42:09;;;;;;;65.95;28.13;;;5.30;76.00;;;;;;5048505;28;20370;-64
2020/12/18 02:44:35;;;;;;;62.35;28.80;;;5.40;76.00;;;;;;5045503;28;20037;-64
2020/12/18 02:47:01;;;;;;;60.35;28.02;;;5.40;76.20;;;;;;5018771;28;20116;-64
2020/12/18 02:49:26;;;;;;;61.90;28.55;;;5.40;76.20;;;;;;5050307;28;20090;-64
2020/12/18 02:51:52;;;;;;;69.05;30.10;;;5.40;76.70;;;;;;5049888;28;20030;-64
2020/12/18 02:54:18;;;;;;;73.40;31.27;;;5.40;75.90;;;;;;5036235;28;20021;-64
2020/12/18 02:56:43;;;;;;;65.32;28.98;;;5.40;75.90;;;;;;5036127;28;20049;-65
2020/12/18 02:59:09;;;;;;;67.28;31.48;;;5.40;75.80;;;;;;5046186;28;20028;-64
2020/12/18 03:01:35;;;;;;;65.68;28.60;;;5.40;75.80;;;;;;5043820;28;20056;-64
2020/12/18 03:04:00;;;;;;;57.28;26.58;;;5.50;75.80;;;;;;5047463;28;20200;-64
2020/12/18 03:06:26;;;;;;;64.25;28.35;;;5.50;75.80;;;;;;5038784;28;20029;-64
2020/12/18 03:08:52;;;;;;;61.53;27.98;;;5.50;75.70;;;;;;5036280;28;20470;-64
2020/12/18 03:11:18;;;;;;;64.28;29.48;;;5.50;75.90;;;;;;5048521;28;20040;-64
2020/12/18 03:13:45;;;;;;;58.03;27.52;;;5.50;76.00;;;;;;5055253;28;20013;-65
2020/12/18 03:16:12;;;;;;;63.72;27.83;;;5.50;75.90;;;;;;5055593;28;20021;-65
2020/12/18 03:18:39;;;;;;;54.90;25.23;;;5.50;76.00;;;;;;5053327;28;20025;-65
2020/12/18 03:21:05;;;;;;;50.28;22.77;;;5.50;75.80;;;;;;5055299;28;20029;-65
2020/12/18 03:23:31;;;;;;;50.05;22.73;;;5.50;75.60;;;;;;5054357;28;20033;-64
2020/12/18 03:25:57;;;;;;;43.25;21.35;;;5.50;75.50;;;;;;5049731;28;20409;-64
2020/12/18 03:28:22;;;;;;;44.22;20.58;;;5.50;75.50;;;;;;5054986;28;20041;-64
2020/12/18 03:30:48;;;;;;;44.00;21.00;;;5.50;75.50;;;;;;5041329;28;20105;-65
2020/12/18 03:33:15;;;;;;;41.70;19.35;;;5.60;75.30;;;;;;5055392;28;20021;-65
2020/12/18 03:35:41;;;;;;;40.60;21.73;;;5.60;75.30;;;;;;5053799;28;20032;-64
2020/12/18 03:38:06;;;;;;;38.55;22.05;;;5.60;75.40;;;;;;5035501;28;20041;-64
2020/12/18 03:40:32;;;;;;;43.88;21.92;;;5.50;75.40;;;;;;5035627;28;20026;-64
2020/12/18 03:42:58;;;;;;;47.22;21.88;;;5.50;75.30;;;;;;5052169;28;20021;-64
2020/12/18 03:45:23;;;;;;;42.50;21.85;;;5.50;75.50;;;;;;5055447;28;20052;-64
2020/12/18 03:47:49;;;;;;;39.35;22.65;;;5.50;75.70;;;;;;5055147;28;20376;-64
2020/12/18 03:50:15;;;;;;;38.67;22.38;;;5.50;76.00;;;;;;5054860;28;20856;-64
2020/12/18 03:52:41;;;;;;;37.90;21.98;;;5.50;76.10;;;;;;5054804;28;20029;-64
2020/12/18 03:55:07;;;;;;;37.92;23.35;;;5.50;75.90;;;;;;5053360;28;20136;-65
2020/12/18 03:57:32;;;;;;;40.05;23.98;;;5.50;75.80;;;;;;5054492;28;20035;-64
2020/12/18 03:59:58;;;;;;;37.92;24.15;;;5.50;75.70;;;;;;5054769;28;20345;-64
2020/12/18 04:02:24;;;;;;;40.85;22.67;;;5.50;75.70;;;;;;5055073;28;20021;-64
2020/12/18 04:04:50;;;;;;;37.63;22.52;;;5.50;75.40;;;;;;5051001;28;20044;-64
2020/12/18 04:07:17;;;;;;;34.15;21.05;;;5.50;75.30;;;;;;5054349;28;20033;-65
2020/12/18 04:09:43;;;;;;;33.88;21.15;;;5.50;75.30;;;;;;5055068;28;20453;-64
2020/12/18 04:12:09;;;;;;;33.53;19.70;;;5.50;75.20;;;;;;5054225;28;20041;-64
2020/12/18 04:14:35;;;;;;;34.95;20.45;;;5.50;75.20;;;;;;5054759;28;20017;-64
2020/12/18 04:17:05;;;;;;;31.75;18.40;;;5.50;75.20;;;;;;5053919;28;20475;-64
2020/12/18 04:19:31;;;;;;;30.13;19.00;;;5.50;75.40;;;;;;5054522;28;20016;-65
2020/12/18 04:21:58;;;;;;;32.00;19.10;;;5.50;75.10;;;;;;5053356;28;20016;-64
2020/12/18 04:24:24;;;;;;;28.45;17.77;;;5.50;75.00;;;;;;5052683;28;20100;-65
2020/12/18 04:26:50;;;;;;;25.65;15.38;;;5.40;74.90;;;;;;5042168;28;20039;-64
2020/12/18 04:29:16;;;;;;;24.85;16.00;;;5.40;74.80;;;;;;5040035;28;20795;-64
2020/12/18 04:31:42;;;;;;;21.23;13.95;;;5.40;74.90;;;;;;5042405;28;20025;-64
2020/12/18 04:34:08;;;;;;;18.73;12.38;;;5.40;74.90;;;;;;5040163;28;20113;-64
2020/12/18 04:36:34;;;;;;;20.40;12.00;;;5.40;74.90;;;;;;5047830;28;20032;-64
2020/12/18 04:39:00;;;;;;;18.85;12.63;;;5.40;75.10;;;;;;5052646;28;20526;-64
2020/12/18 04:41:27;;;;;;;17.67;12.85;;;5.40;75.20;;;;;;5049286;28;20026;-65
2020/12/18 04:43:53;;;;;;;19.15;12.82;;;5.40;75.30;;;;;;5044707;28;20385;-65
2020/12/18 04:46:21;;;;;;;19.30;12.35;;;5.40;75.40;;;;;;5053957;28;20032;-65
2020/12/18 04:48:47;;;;;;;18.60;11.73;;;5.40;75.50;;;;;;5054300;28;20025;-65
2020/12/18 04:51:21;;;;;;;17.98;12.70;;;5.40;75.40;;;;;;5039567;28;20036;-65
2020/12/18 04:53:51;;;;;;;19.00;12.00;;;5.40;75.40;;;;;;5053366;28;20139;-65
2020/12/18 04:56:23;;;;;;;19.42;12.55;;;5.40;75.40;;;;;;5052112;28;20029;-65
2020/12/18 04:58:51;;;;;;;18.98;12.73;;;5.40;75.40;;;;;;5034111;28;20033;-65
2020/12/18 05:01:19;;;;;;;18.70;12.30;;;5.40;75.30;;;;;;5047711;28;20029;-65
2020/12/18 05:03:46;;;;;;;19.27;12.85;;;5.40;75.40;;;;;;5033880;28;20381;-64
2020/12/18 05:06:12;;;;;;;19.08;13.07;;;5.40;75.40;;;;;;5036381;28;20060;-65
2020/12/18 05:08:38;;;;;;;23.35;15.23;;;5.40;75.40;;;;;;5044139;28;20029;-64
2020/12/18 05:11:20;;;;;;;20.98;13.73;;;5.30;75.50;;;;;;5033676;28;20117;-64
2020/12/18 05:13:47;;;;;;;20.77;14.02;;;5.30;75.40;;;;;;5038102;28;20017;-64
2020/12/18 05:16:13;;;;;;;21.88;12.77;;;5.30;75.30;;;;;;5053447;28;20021;-64
2020/12/18 05:18:39;;;;;;;21.50;13.00;;;5.40;75.50;;;;;;5042649;28;20176;-65
2020/12/18 05:21:05;;;;;;;21.70;13.45;;;5.40;75.30;;;;;;5053174;28;20116;-64
2020/12/18 05:23:36;;;;;;;21.30;12.88;;;5.40;75.40;;;;;;5051913;28;20025;-64
2020/12/18 05:26:04;;;;;;;20.60;12.90;;;5.40;75.40;;;;;;5038768;28;20201;-67
2020/12/18 05:28:42;;;;;;;19.92;12.23;;;5.30;75.40;;;;;;5053235;28;20048;-66
2020/12/18 05:31:10;;;;;;;19.80;12.70;;;5.30;75.40;;;;;;5042452;28;20056;-64
2020/12/18 05:33:35;;;;;;;20.60;14.18;;;5.30;75.60;;;;;;5033811;28;20028;-64
2020/12/18 05:36:02;;;;;;;20.88;13.23;;;5.30;75.60;;;;;;5046698;28;20024;-65
2020/12/18 05:38:28;;;;;;;21.00;13.05;;;5.30;75.60;;;;;;5033461;28;20055;-64
2020/12/18 05:40:57;;;;;;;19.42;13.55;;;5.30;75.50;;;;;;5033065;28;20057;-65
2020/12/18 05:43:23;;;;;;;23.20;14.73;;;5.30;75.40;;;;;;5039449;28;20354;-65
2020/12/18 05:45:48;;;;;;;23.27;15.43;;;5.30;75.40;;;;;;5050149;28;20062;-64
2020/12/18 05:48:15;;;;;;;21.40;14.43;;;5.30;75.40;;;;;;5052174;28;20028;-64
2020/12/18 05:50:41;;;;;;;19.73;13.90;;;5.30;75.40;;;;;;5062290;28;20039;-64
2020/12/18 05:53:08;;;;;;;21.95;14.13;;;5.30;75.40;;;;;;5050770;28;20603;-64
2020/12/18 05:55:38;;;;;;;22.85;15.00;;;5.30;75.30;;;;;;5046675;28;20025;-64
2020/12/18 05:58:04;;;;;;;22.60;15.07;;;5.30;75.30;;;;;;5051583;28;20104;-64
2020/12/18 06:00:31;;;;;;;22.23;15.32;;;5.30;75.50;;;;;;5040149;28;20025;-65
2020/12/18 06:03:00;;;;;;;20.60;14.18;;;5.30;75.50;;;;;;5048524;28;20473;-64
2020/12/18 06:05:26;;;;;;;21.02;13.02;;;5.30;75.30;;;;;;5036283;28;20100;-64
2020/12/18 06:07:53;;;;;;;20.08;13.32;;;5.30;75.20;;;;;;5033242;28;20040;-64
2020/12/18 06:10:28;;;;;;;20.40;12.90;;;5.30;75.30;;;;;;5045531;28;20147;-64
2020/12/18 06:13:01;;;;;;;19.60;13.00;;;5.30;75.30;;;;;;5044130;28;20115;-65
2020/12/18 06:15:27;;;;;;;20.83;14.13;;;5.30;75.40;;;;;;5034284;28;20071;-64
2020/12/18 06:17:54;;;;;;;25.05;16.45;;;5.30;75.60;;;;;;5042967;28;20029;-64
2020/12/18 06:20:20;;;;;;;23.98;15.35;;;5.30;75.50;;;;;;5038943;28;20033;-65
2020/12/18 06:23:00;;;;;;;24.60;17.15;;;5.30;75.50;;;;;;5045302;28;20032;-64
2020/12/18 06:25:26;;;;;;;26.02;16.48;;;5.30;75.40;;;;;;5046679;28;20358;-64
2020/12/18 06:27:58;;;;;;;20.85;14.20;;;5.30;75.20;;;;;;5052502;28;20472;-64
2020/12/18 06:30:25;;;;;;;21.25;14.02;;;5.40;74.90;;;;;;5045350;28;20026;-64
2020/12/18 06:32:51;;;;;;;24.15;14.20;;;5.40;74.90;;;;;;5041339;28;20025;-64
2020/12/18 06:35:37;;;;;;;20.00;13.55;;;5.40;75.00;;;;;;5056459;28;20385;-64
2020/12/18 06:38:12;;;;;;;20.20;12.93;;;5.30;75.30;;;;;;5042162;28;20028;-65
2020/12/18 06:40:38;;;;;;;22.70;15.07;;;5.30;74.60;;;;;;5044354;28;20033;-64
2020/12/18 06:43:03;;;;;;;23.88;15.82;;;5.30;74.50;;;;;;5038832;28;20040;-64
2020/12/18 06:45:30;;;;;;;22.05;15.73;;;5.30;74.90;;;;;;5039661;28;20028;-65
2020/12/18 06:47:56;;;;;;;21.65;14.60;;;5.30;75.00;;;;;;5044185;28;20033;-65
2020/12/18 06:50:22;;;;;;;18.92;13.95;;;5.40;75.00;;;;;;5050230;28;20030;-65
2020/12/18 06:52:54;;;;;;;20.55;14.15;;;5.40;74.80;;;;;;5041756;28;20025;-65
2020/12/18 06:55:26;;;;;;;18.15;13.35;;;5.40;74.70;;;;;;5045888;28;20028;-64
2020/12/18 06:58:09;;;;;;;20.80;13.57;;;5.40;74.70;;;;;;5047482;28;20380;-51
2020/12/18 07:00:42;;;;;;;22.52;14.18;;;5.40;74.80;;;;;;5042289;28;20026;-55
2020/12/18 07:03:09;;;;;;;23.08;15.20;;;5.40;75.00;;;;;;5047117;28;20048;-52
2020/12/18 07:05:42;;;;;;;21.88;14.82;;;5.40;75.00;;;;;;5045577;28;20025;-51
2020/12/18 07:08:17;;;;;;;23.13;15.80;;;5.40;75.00;;;;;;5040283;28;20029;-52
2020/12/18 07:10:46;;;;;;;23.98;13.95;;;5.50;74.80;;;;;;5043429;28;20033;-54
2020/12/18 07:13:16;;;;;;;21.90;14.57;;;5.50;74.70;;;;;;5041448;28;20033;-53
2020/12/18 07:15:45;;;;;;;24.38;15.25;;;5.50;74.50;;;;;;5044801;28;20025;-55
2020/12/18 07:18:25;;;;;;;22.48;15.30;;;5.50;74.70;;;;;;5047492;28;20025;-55
2020/12/18 07:20:58;;;;;;;23.02;14.70;;;5.60;74.70;;;;;;5042863;28;20397;-54
2020/12/18 07:23:26;;;;;;;24.02;15.20;;;5.60;74.80;;;;;;5042816;28;20026;-53
2020/12/18 07:25:52;;;;;;;24.15;16.15;;;5.60;74.70;;;;;;5045693;28;20021;-53
2020/12/18 07:28:19;;;;;;;28.65;18.80;;;5.70;74.80;;;;;;5042159;28;20072;-51
2020/12/18 07:30:47;;;;;;;22.77;16.02;;;5.70;74.50;;;;;;5036544;28;20028;-52
2020/12/18 07:33:15;;;;;;;26.75;17.83;;;5.70;74.20;;;;;;5037573;28;20405;-54
2020/12/18 07:35:46;;;;;;;23.52;15.55;;;5.70;74.10;;;;;;5043537;28;20112;-55
2020/12/18 07:38:20;;;;;;;23.58;14.95;;;5.80;74.00;;;;;;5040292;28;20029;-50
2020/12/18 07:40:48;;;;;;;23.40;15.25;;;5.80;74.10;;;;;;5037055;28;20426;-54
2020/12/18 07:43:15;;;;;;;24.30;16.15;;;5.80;74.10;;;;;;5034174;28;20126;-55
2020/12/18 07:45:46;;;;;;;24.20;15.60;;;5.80;74.10;;;;;;5038018;28;20055;-54
2020/12/18 07:48:15;;;;;;;23.00;15.45;;;5.80;74.00;;;;;;5042757;28;20458;-52
2020/12/18 07:51:02;;;;;;;26.40;16.05;;;5.80;73.60;;;;;;5042317;28;20045;-55
2020/12/18 07:53:29;;;;;;;25.17;16.35;;;5.80;73.60;;;;;;5043873;28;20061;-52
2020/12/18 07:56:16;;;;;;;26.17;16.90;;;5.80;73.80;;;;;;5041380;28;20029;-51
2020/12/18 07:59:06;;;;;;;25.13;16.80;;;5.80;73.60;;;;;;5039552;28;20021;-55
2020/12/18 08:01:36;;;;;;;23.90;14.82;;;5.80;73.60;;;;;;5028170;28;20479;-55
2020/12/18 08:04:12;;;;;;;21.55;14.50;;;5.80;73.40;;;;;;5040739;28;20373;-55
2020/12/18 08:06:39;;;;;;;22.60;14.02;;;5.80;73.40;;;;;;5045584;28;20037;-53
2020/12/18 08:09:08;;;;;;;20.50;14.65;;;5.80;73.30;;;;;;5040291;28;20049;-55
2020/12/18 08:11:35;;;;;;;20.48;14.27;;;5.80;73.30;;;;;;5039747;28;20032;-55
2020/12/18 08:14:03;;;;;;;22.15;15.55;;;5.80;73.20;;;;;;5041564;28;20054;-54
2020/12/18 08:16:30;;;;;;;23.23;15.23;;;5.90;73.10;;;;;;5038575;28;20079;-54
2020/12/18 08:19:00;;;;;;;21.90;15.38;;;5.90;73.00;;;;;;5040689;28;20108;-53
2020/12/18 08:21:46;;;;;;;22.65;14.88;;;5.90;72.90;;;;;;5038776;28;20045;-56
2020/12/18 08:24:21;;;;;;;20.63;14.45;;;5.90;72.90;;;;;;5035730;28;20071;-55
2020/12/18 08:26:56;;;;;;;22.00;14.05;;;5.90;73.10;;;;;;5042906;28;20374;-55
2020/12/18 08:29:23;;;;;;;23.60;14.30;;;5.90;73.00;;;;;;5045651;28;20057;-54
2020/12/18 08:31:54;;;;;;;25.10;16.08;;;5.90;73.20;;;;;;5037916;28;20514;-55
2020/12/18 08:34:28;;;;;;;25.02;15.65;;;5.90;73.20;;;;;;5044167;28;20056;-55
2020/12/18 08:36:55;;;;;;;19.40;14.15;;;6.00;72.80;;;;;;5038099;28;20029;-55
2020/12/18 08:39:20;;;;;;;21.40;15.43;;;6.00;72.60;;;;;;5035214;28;20025;-54
2020/12/18 08:41:47;;;;;;;25.10;15.82;;;6.10;72.30;;;;;;5037697;28;20063;-55
2020/12/18 08:44:16;;;;;;;22.52;14.57;;;6.10;72.00;;;;;;5040843;28;20488;-55
2020/12/18 08:46:42;;;;;;;20.05;15.20;;;6.10;71.80;;;;;;5039555;28;20033;-56
2020/12/18 08:49:25;;;;;;;24.73;16.20;;;6.10;71.30;;;;;;5035421;28;20037;-55
2020/12/18 08:51:54;;;;;;;23.30;15.77;;;6.10;71.00;;;;;;5035970;28;20428;-54
2020/12/18 08:54:25;;;;;;;23.67;15.57;;;6.20;71.20;;;;;;5037053;28;20022;-54
2020/12/18 08:57:09;;;;;;;;;;;6.10;71.00;;;;;;5037578;28;20029;-56
2020/12/18 08:59:35;;;;;;;22.05;13.70;;;6.10;70.60;;;;;;5036952;28;20632;-55
2020/12/18 09:02:01;;;;;;;21.15;13.32;;;6.10;71.00;;;;;;5037615;28;20033;-55
2020/12/18 09:04:26;;;;;;;23.33;13.38;;;6.20;70.80;;;;;;5035706;28;20032;-55
2020/12/18 09:06:52;;;;;;;21.15;12.40;;;6.20;70.50;;;;;;5039557;28;20528;-54
2020/12/18 09:09:18;;;;;;;20.17;11.88;;;6.20;70.30;;;;;;5032362;28;20033;-55
2020/12/18 09:11:47;;;;;;;20.02;13.13;;;6.20;70.10;;;;;;5038926;28;20029;-54
2020/12/18 09:14:29;;;;;;;16.90;10.40;;;6.20;70.10;;;;;;5032723;28;20508;-55
2020/12/18 09:16:58;;;;;;;17.70;10.52;;;6.20;69.70;;;;;;5033429;28;20053;-55
2020/12/18 09:19:24;;;;;;;20.20;11.95;;;6.10;69.80;;;;;;5040575;28;20025;-55
2020/12/18 09:21:50;;;;;;;16.85;10.80;;;6.20;69.60;;;;;;5035401;28;20518;-55
2020/12/18 09:24:19;;;;;;;20.23;11.85;;;6.10;69.70;;;;;;5035746;28;20167;-54
2020/12/18 09:26:46;;;;;;;19.67;10.85;;;6.20;69.70;;;;;;5040653;28;20027;-54
2020/12/18 09:29:16;;;;;;;16.17;10.80;;;6.20;70.10;;;;;;5024263;28;20553;-55
2020/12/18 09:31:42;;;;;;;18.13;11.63;;;6.30;70.10;;;;;;5016776;28;20105;-53
2020/12/18 09:34:15;;;;;;;17.80;11.55;;;6.30;70.10;;;;;;5023825;28;20030;-54
2020/12/18 09:36:41;;;;;;;18.98;11.45;;;6.30;69.90;;;;;;5015589;28;20620;-55
2020/12/18 09:39:07;;;;;;;20.67;13.13;;;6.30;69.50;;;;;;5017334;28;20056;-55
2020/12/18 09:41:32;;;;;;;19.80;12.55;;;6.30;69.60;;;;;;5016337;28;20384;-55
2020/12/18 09:43:58;;;;;;;23.55;13.60;;;6.30;69.60;;;;;;5000894;28;20040;-55
2020/12/18 09:46:24;;;;;;;26.02;14.07;;;6.30;69.50;;;;;;5017776;28;20084;-55
2020/12/18 09:48:50;;;;;;;26.17;14.45;;;6.30;69.40;;;;;;5015485;28;20112;-55
2020/12/18 09:51:18;;;;;;;21.83;13.27;;;6.30;69.40;;;;;;5015796;28;20033;-54
2020/12/18 09:53:45;;;;;;;27.90;16.20;;;6.30;69.30;;;;;;5022105;28;20028;-51
2020/12/18 09:56:11;;;;;;;23.70;14.18;;;6.30;69.50;;;;;;5016903;28;20033;-53
2020/12/18 09:58:38;;;;;;;31.98;18.13;;;6.30;69.60;;;;;;5020249;28;20037;-55
2020/12/18 10:01:04;;;;;;;31.23;18.20;;;6.30;69.80;;;;;;5018472;28;20445;-55
2020/12/18 10:03:30;;;;;;;36.22;22.10;;;6.30;69.90;;;;;;5016555;28;20129;-54
2020/12/18 10:05:56;;;;;;;32.53;21.85;;;6.30;70.00;;;;;;5018766;28;20549;-54
2020/12/18 10:08:21;;;;;;;30.92;22.05;;;6.30;69.90;;;;;;5021426;28;20065;-56
2020/12/18 10:10:47;;;;;;;30.63;20.35;;;6.30;70.00;;;;;;5023348;28;20040;-55
2020/12/18 10:13:17;;;;;;;22.73;14.90;;;6.40;70.00;;;;;;5016522;28;20074;-54
2020/12/18 10:15:43;;;;;;;18.70;13.00;;;6.30;70.00;;;;;;5008532;28;20028;-55
2020/12/18 10:18:09;;;;;;;20.40;15.00;;;6.30;69.80;;;;;;5015448;28;20623;-53
2020/12/18 10:20:35;;;;;;;25.98;16.50;;;6.30;69.60;;;;;;5008245;28;20481;-54
2020/12/18 10:23:01;;;;;;;23.45;13.77;;;6.30;69.40;;;;;;5016816;28;20044;-53
2020/12/18 10:25:26;;;;;;;21.23;13.98;;;6.30;69.40;;;;;;5017945;28;20052;-54
2020/12/18 10:27:52;;;;;;;24.40;13.52;;;6.30;69.20;;;;;;5021733;28;20057;-55
2020/12/18 10:30:18;;;;;;;19.02;12.65;;;6.20;69.40;;;;;;5042167;28;20116;-55
2020/12/18 10:32:45;;;;;;;16.15;11.50;;;6.20;69.50;;;;;;5033637;28;20412;-55
2020/12/18 10:35:11;;;;;;;17.85;12.50;;;6.20;69.30;;;;;;5025344;28;20079;-55
2020/12/18 10:37:36;;;;;;;19.38;13.02;;;6.30;69.80;;;;;;5033007;28;20029;-55
2020/12/18 10:40:04;;;;;;;16.60;12.05;;;6.20;69.10;;;;;;5033406;28;20458;-54
2020/12/18 10:42:30;;;;;;;23.77;13.23;;;6.20;69.10;;;;;;5031934;28;20567;-54
2020/12/18 10:44:56;;;;;;;17.55;11.88;;;6.20;69.10;;;;;;5033971;28;20025;-55
2020/12/18 10:47:21;;;;;;;19.35;13.35;;;6.20;69.10;;;;;;5034331;28;20029;-55
2020/12/18 10:49:47;;;;;;;18.23;12.77;;;6.20;69.30;;;;;;5039100;28;20040;-54
2020/12/18 10:52:13;;;;;;;18.23;12.38;;;6.20;69.30;;;;;;5033586;28;20025;-52
2020/12/18 10:54:39;;;;;;;20.45;13.80;;;6.30;69.40;;;;;;5031322;28;20021;-55
2020/12/18 10:57:04;;;;;;;17.88;12.75;;;6.30;69.40;;;;;;5032740;28;20043;-56
2020/12/18 10:59:31;;;;;;;22.17;12.95;;;6.40;69.60;;;;;;5034739;28;20048;-53
2020/12/18 11:01:58;;;;;;;21.17;13.55;;;6.40;69.50;;;;;;5031313;28;20024;-55
2020/12/18 11:04:25;;;;;;;20.90;14.10;;;6.40;69.40;;;;;;5030401;28;20680;-56
2020/12/18 11:06:51;;;;;;;21.08;14.55;;;6.40;69.50;;;;;;5029598;28;20135;-54
2020/12/18 11:09:17;;;;;;;18.80;13.10;;;6.40;69.50;;;;;;5023186;28;20465;-55
2020/12/18 11:11:49;;;;;;;17.10;12.70;;;6.40;69.50;;;;;;5030224;28;20033;-55
2020/12/18 11:14:15;;;;;;;;;;;6.40;69.50;;;;;;5030824;28;20018;-54
2020/12/18 11:16:40;;;;;;;24.30;14.45;;;6.30;69.20;;;;;;5036144;28;20357;-54
2020/12/18 11:19:06;;;;;;;20.15;13.95;;;6.30;69.30;;;;;;5034834;28;20500;-53
2020/12/18 11:21:32;;;;;;;22.35;15.40;;;6.30;69.20;;;;;;5034202;28;20035;-54
2020/12/18 11:23:58;;;;;;;21.27;15.00;;;6.20;69.00;;;;;;5031772;28;20035;-56
2020/12/18 11:26:24;;;;;;;24.33;15.45;;;6.20;69.10;;;;;;5035332;28;20032;-55
2020/12/18 11:28:53;;;;;;;26.05;15.00;;;6.20;69.30;;;;;;5024827;28;20077;-55
2020/12/18 11:31:19;;;;;;;26.25;16.67;;;6.20;69.60;;;;;;5016932;28;20041;-55
2020/12/18 11:33:45;;;;;;;26.20;16.27;;;6.10;68.90;;;;;;5018673;28;20637;-55
2020/12/18 11:36:12;;;;;;;26.20;15.55;;;6.10;69.20;;;;;;5011643;28;20048;-53
2020/12/18 11:38:38;;;;;;;22.92;14.30;;;6.10;69.40;;;;;;5017423;28;20113;-56
2020/12/18 11:41:04;;;;;;;23.77;15.25;;;6.20;69.50;;;;;;5019187;28;20738;-53
2020/12/18 11:43:29;;;;;;;27.27;15.95;;;6.20;69.50;;;;;;5024475;28;20022;-54
2020/12/18 11:45:55;;;;;;;24.10;15.15;;;6.20;69.50;;;;;;5024446;28;20061;-55
2020/12/18 11:48:22;;;;;;;24.80;15.35;;;6.20;69.50;;;;;;5016288;28;20034;-52
2020/12/18 11:50:48;;;;;;;21.05;14.20;;;6.30;69.50;;;;;;5013632;28;20037;-52
2020/12/18 11:53:14;;;;;;;19.75;13.63;;;6.30;69.60;;;;;;5010227;28;20488;-55
2020/12/18 11:55:39;;;;;;;20.23;14.40;;;6.30;69.70;;;;;;5020922;28;20025;-55
2020/12/18 11:58:05;;;;;;;23.50;14.82;;;6.30;69.60;;;;;;5014863;28;20050;-52
2020/12/18 12:00:31;;;;;;;20.13;13.57;;;6.30;69.80;;;;;;5016543;28;20489;-55
2020/12/18 12:02:57;;;;;;;20.27;12.93;;;6.30;69.60;;;;;;5022000;28;20069;-55
2020/12/18 12:05:24;;;;;;;19.48;12.45;;;6.40;69.60;;;;;;5013853;28;20040;-55
2020/12/18 12:07:51;;;;;;;18.40;13.07;;;6.40;69.50;;;;;;5013870;28;20403;-54
2020/12/18 12:10:18;;;;;;;19.65;12.98;;;6.40;69.60;;;;;;5013078;28;20073;-54
2020/12/18 12:12:47;;;;;;;21.23;14.52;;;6.40;69.50;;;;;;5010116;28;20025;-54
2020/12/18 12:15:15;;;;;;;19.00;13.18;;;6.40;69.40;;;;;;5016591;28;20933;-54
2020/12/18 12:17:40;;;;;;;18.23;12.52;;;6.40;69.30;;;;;;5009603;28;20026;-54
2020/12/18 12:20:06;;;;;;;19.48;13.52;;;6.40;69.40;;;;;;5015805;28;20048;-54
2020/12/18 12:22:33;;;;;;;19.13;14.15;;;6.40;69.40;;;;;;5007989;28;20037;-55
2020/12/18 12:24:58;;;;;;;21.48;12.43;;;6.40;69.30;;;;;;5015441;28;20489;-55
2020/12/18 12:27:26;;;;;;;17.05;12.35;;;6.40;69.20;;;;;;5018315;28;20044;-56
2020/12/18 12:29:52;;;;;;;18.20;11.98;;;6.40;68.70;;;;;;5034291;28;20067;-56
2020/12/18 12:32:18;;;;;;;19.55;11.93;;;6.40;68.40;;;;;;5032004;28;20036;-55
2020/12/18 12:34:44;;;;;;;16.40;11.60;;;6.40;68.50;;;;;;5035399;28;20049;-56
2020/12/18 12:37:11;;;;;;;16.95;11.70;;;6.40;68.70;;;;;;5033864;28;20108;-53
2020/12/18 12:39:38;;;;;;;16.55;11.43;;;6.40;68.90;;;;;;5029860;28;20505;-56